createdAt,value
2017-11-18T00:01:46.690Z,95.60
2017-11-18T00:04:14.145Z,84.03
2017-11-18T00:06:41.609Z,83.57
2017-11-18T00:09:09.108Z,74.53
2017-11-18T00:11:36.565Z,74.57
2017-11-18T00:14:04.052Z,60.17
2017-11-18T00:16:31.516Z,83.03
2017-11-18T00:18:58.993Z,80.00
2017-11-18T00:21:26.448Z,76.00
2017-11-18T00:23:53.932Z,76.40
2017-11-18T00:26:21.402Z,95.50
2017-11-18T00:28:48.959Z,87.40
2017-11-18T00:31:16.425Z,68.27
2017-11-18T00:33:43.946Z,84.33
2017-11-18T00:36:11.408Z,86.10
2017-11-18T00:38:38.917Z,70.80
2017-11-18T00:41:06.384Z,68.63
2017-11-18T00:43:33.865Z,57.00
2017-11-18T00:46:01.316Z,64.47
2017-11-18T00:48:28.813Z,81.13
2017-11-18T00:50:56.278Z,73.63
2017-11-18T00:53:23.751Z,114.40
2017-11-18T00:55:51.297Z,117.80
2017-11-18T00:58:18.796Z,72.77
2017-11-18T01:00:46.305Z,81.37
2017-11-18T01:03:13.757Z,71.73
2017-11-18T01:05:41.247Z,81.33
2017-11-18T01:08:08.706Z,78.53
2017-11-18T01:10:36.190Z,71.83
2017-11-18T01:13:03.675Z,71.93
2017-11-18T01:15:31.169Z,89.13
2017-11-18T01:17:58.630Z,69.43
2017-11-18T01:20:26.123Z,80.07
2017-11-18T01:22:53.594Z,78.60
2017-11-18T01:25:21.079Z,67.20
2017-11-18T01:27:48.546Z,80.53
2017-11-18T01:30:16.043Z,81.10
2017-11-18T01:32:43.549Z,76.30
2017-11-18T01:35:11.108Z,72.77
2017-11-18T01:37:38.568Z,73.87
2017-11-18T01:40:06.029Z,73.43
2017-11-18T01:42:33.516Z,76.90
2017-11-18T01:45:01.031Z,68.87
2017-11-18T01:47:28.507Z,62.73
2017-11-18T01:49:55.964Z,89.70
2017-11-18T01:52:23.453Z,75.53
2017-11-18T01:54:50.912Z,72.57
2017-11-18T01:57:18.423Z,74.87
2017-11-18T01:59:45.979Z,60.17
2017-11-18T02:05:13.176Z,60.77
2017-11-18T02:07:40.653Z,47.80
2017-11-18T02:10:08.116Z,59.93
2017-11-18T02:12:35.676Z,65.40
2017-11-18T02:15:03.136Z,61.90
2017-11-18T02:17:30.604Z,55.27
2017-11-18T02:19:58.068Z,49.10
2017-11-18T02:22:25.664Z,53.33
2017-11-18T02:24:53.151Z,61.23
2017-11-18T02:27:20.648Z,66.03
2017-11-18T02:29:48.217Z,47.93
2017-11-18T02:32:15.673Z,52.20
2017-11-18T02:34:43.242Z,57.17
2017-11-18T02:37:10.697Z,50.73
2017-11-18T02:39:38.188Z,47.80
2017-11-18T02:42:05.716Z,55.73
2017-11-18T02:44:33.204Z,57.60
2017-11-18T02:47:00.671Z,53.03
2017-11-18T02:49:28.155Z,62.90
2017-11-18T02:51:55.609Z,45.30
2017-11-18T02:54:23.185Z,47.80
2017-11-18T02:56:50.747Z,56.67
2017-11-18T02:59:18.226Z,74.40
2017-11-18T03:01:45.784Z,86.00
2017-11-18T03:04:13.293Z,140.70
2017-11-18T03:06:40.778Z,61.87
2017-11-18T03:09:08.273Z,153.90
2017-11-18T03:11:35.739Z,128.60
2017-11-18T03:14:03.227Z,91.57
2017-11-18T03:16:30.692Z,63.03
2017-11-18T03:18:58.198Z,48.23
2017-11-18T03:21:25.738Z,45.93
2017-11-18T03:23:53.194Z,47.83
2017-11-18T03:26:20.684Z,51.70
2017-11-18T03:28:48.146Z,62.97
2017-11-18T03:31:15.630Z,55.33
2017-11-18T03:33:43.097Z,72.60
2017-11-18T03:36:10.583Z,90.10
2017-11-18T03:38:38.056Z,65.07
2017-11-18T03:41:05.539Z,53.97
2017-11-18T03:43:33.018Z,60.03
2017-11-18T03:46:00.516Z,53.17
2017-11-18T03:48:28.050Z,115.93
2017-11-18T03:50:55.524Z,55.47
2017-11-18T03:53:23.078Z,35.00
2017-11-18T03:55:50.623Z,80.37
2017-11-18T03:58:18.114Z,144.17
2017-11-18T04:00:51.226Z,37.00
2017-11-18T04:03:18.727Z,45.63
2017-11-18T04:05:46.204Z,34.50
2017-11-18T04:08:13.696Z,56.03
2017-11-18T04:10:41.149Z,54.57
2017-11-18T04:13:08.634Z,34.67
2017-11-18T04:15:36.093Z,39.13
2017-11-18T04:18:03.573Z,35.70
2017-11-18T04:20:31.133Z,35.27
2017-11-18T04:22:58.620Z,39.60
2017-11-18T04:25:26.081Z,37.30
2017-11-18T04:27:53.594Z,41.13
2017-11-18T04:30:21.059Z,59.23
2017-11-18T04:32:48.526Z,67.97
2017-11-18T04:35:16.006Z,25.63
2017-11-18T04:37:43.581Z,46.53
2017-11-18T04:40:11.067Z,34.73
2017-11-18T04:42:38.572Z,41.93
2017-11-18T04:45:06.071Z,38.33
2017-11-18T04:47:33.528Z,40.53
2017-11-18T04:50:01.018Z,36.03
2017-11-18T04:52:28.478Z,27.93
2017-11-18T04:54:56.032Z,39.93
2017-11-18T04:57:23.499Z,34.63
2017-11-18T04:59:50.977Z,44.80
2017-11-18T05:02:18.504Z,27.83
2017-11-18T05:04:45.990Z,30.33
2017-11-18T05:07:13.535Z,28.43
2017-11-18T05:09:41.077Z,23.13
2017-11-18T05:12:09.221Z,25.60
2017-11-18T05:14:36.706Z,68.63
2017-11-18T05:17:04.271Z,30.03
2017-11-18T05:19:31.732Z,29.50
2017-11-18T05:21:59.222Z,53.17
2017-11-18T05:24:26.687Z,42.83
2017-11-18T05:26:54.165Z,43.30
2017-11-18T05:29:21.654Z,42.57
2017-11-18T05:31:49.139Z,71.13
2017-11-18T05:34:16.698Z,32.13
2017-11-18T05:36:44.190Z,41.97
2017-11-18T05:39:11.640Z,59.83
2017-11-18T05:41:39.139Z,77.57
2017-11-18T05:44:06.611Z,36.23
2017-11-18T05:46:34.162Z,45.60
2017-11-18T05:49:01.731Z,44.77
2017-11-18T05:51:29.294Z,86.40
2017-11-18T05:53:56.762Z,48.00
2017-11-18T05:56:24.229Z,29.57
2017-11-18T05:58:51.750Z,40.23
2017-11-18T06:01:19.233Z,32.70
2017-11-18T06:03:46.708Z,48.57
2017-11-18T06:06:14.163Z,52.83
2017-11-18T06:08:41.671Z,82.13
2017-11-18T06:11:09.127Z,53.23
2017-11-18T06:13:36.689Z,31.07
2017-11-18T06:16:04.146Z,67.10
2017-11-18T06:18:31.629Z,73.93
2017-11-18T06:20:59.157Z,42.20
2017-11-18T06:23:26.625Z,40.30
2017-11-18T06:25:54.198Z,72.97
2017-11-18T06:28:21.747Z,49.63
2017-11-18T06:30:49.226Z,44.93
2017-11-18T06:33:16.728Z,94.63
2017-11-18T06:35:44.200Z,167.53
2017-11-18T06:38:11.669Z,67.17
2017-11-18T06:40:39.140Z,72.10
2017-11-18T06:43:06.676Z,178.60
2017-11-18T06:45:34.157Z,137.00
2017-11-18T06:48:01.613Z,49.73
2017-11-18T06:50:29.085Z,78.23
2017-11-18T06:52:56.604Z,67.87
2017-11-18T06:55:24.183Z,32.93
2017-11-18T06:57:51.725Z,35.83
2017-11-18T07:00:19.334Z,48.03
2017-11-18T07:02:46.805Z,50.10
2017-11-18T07:05:14.295Z,66.43
2017-11-18T07:07:41.772Z,49.30
2017-11-18T07:10:09.320Z,27.33
2017-11-18T07:12:36.814Z,42.43
2017-11-18T07:15:04.284Z,57.37
2017-11-18T07:17:31.785Z,59.23
2017-11-18T07:19:59.240Z,47.37
2017-11-18T07:22:26.714Z,25.20
2017-11-18T07:24:54.177Z,32.30
2017-11-18T07:27:21.662Z,43.90
2017-11-18T07:29:49.173Z,35.30
2017-11-18T07:32:16.743Z,28.10
2017-11-18T07:34:44.215Z,31.30
2017-11-18T07:37:11.694Z,30.20
2017-11-18T07:39:39.166Z,31.57
2017-11-18T07:42:06.628Z,24.30
2017-11-18T07:44:34.122Z,25.87
2017-11-18T07:47:01.682Z,28.53
2017-11-18T07:49:29.156Z,29.27
2017-11-18T07:51:56.654Z,33.57
2017-11-18T07:54:24.178Z,29.20
2017-11-18T07:56:51.637Z,25.97
2017-11-18T07:59:19.159Z,27.20
2017-11-18T08:01:46.669Z,32.57
2017-11-18T08:04:14.179Z,22.37
2017-11-18T08:06:41.752Z,38.70
2017-11-18T08:09:09.240Z,34.70
2017-11-18T08:11:38.217Z,21.50
2017-11-18T08:14:05.714Z,15.97
2017-11-18T08:16:33.250Z,17.50
2017-11-18T08:19:00.709Z,24.43
2017-11-18T08:21:28.210Z,24.30
2017-11-18T08:23:55.679Z,14.07
2017-11-18T08:26:23.246Z,21.87
2017-11-18T08:28:50.730Z,16.97
2017-11-18T08:31:18.243Z,14.37
2017-11-18T08:33:45.811Z,21.40
2017-11-18T08:36:25.092Z,15.93
2017-11-18T08:38:52.575Z,17.30
2017-11-18T08:41:20.063Z,20.20
2017-11-18T08:43:47.614Z,18.13
2017-11-18T08:46:15.101Z,19.83
2017-11-18T08:48:42.577Z,26.93
2017-11-18T08:51:10.044Z,13.73
2017-11-18T08:53:37.517Z,19.33
2017-11-18T08:56:05.000Z,28.43
2017-11-18T08:58:32.492Z,13.93
2017-11-18T09:00:59.956Z,17.43
2017-11-18T09:03:27.453Z,19.63
2017-11-18T09:05:54.910Z,11.70
2017-11-18T09:08:22.394Z,18.57
2017-11-18T09:10:49.954Z,13.00
2017-11-18T09:13:17.529Z,20.20
2017-11-18T09:15:45.034Z,9.43
2017-11-18T09:18:12.494Z,19.17
2017-11-18T09:20:39.965Z,12.40
2017-11-18T09:23:07.425Z,14.67
2017-11-18T09:25:34.922Z,21.83
2017-11-18T09:28:02.381Z,13.67
2017-11-18T09:30:29.853Z,12.50
2017-11-18T09:32:57.318Z,12.67
2017-11-18T09:35:24.808Z,13.90
2017-11-18T09:37:52.266Z,18.93
2017-11-18T09:40:19.764Z,13.73
2017-11-18T09:42:47.302Z,8.73
2017-11-18T09:45:14.795Z,8.50
2017-11-18T09:47:42.275Z,7.63
2017-11-18T09:50:09.739Z,16.83
2017-11-18T09:52:37.219Z,15.43
2017-11-18T09:55:04.779Z,12.97
2017-11-18T09:57:32.261Z,14.37
2017-11-18T09:59:59.794Z,10.00
2017-11-18T10:02:27.338Z,4.77
2017-11-18T10:04:54.806Z,6.60
2017-11-18T10:07:22.280Z,11.50
2017-11-18T10:09:49.731Z,9.97
2017-11-18T10:12:17.205Z,6.57
2017-11-18T10:14:44.680Z,13.80
2017-11-18T10:17:12.193Z,6.33
2017-11-18T10:19:39.654Z,5.23
2017-11-18T10:22:07.106Z,6.97
2017-11-18T10:24:34.587Z,7.80
2017-11-18T10:27:02.036Z,9.63
2017-11-18T10:29:29.518Z,17.30
2017-11-18T10:31:56.977Z,10.93
2017-11-18T10:34:24.443Z,7.20
2017-11-18T10:36:51.898Z,6.80
2017-11-18T10:39:19.376Z,9.33
2017-11-18T10:41:46.831Z,17.67
2017-11-18T10:44:14.310Z,5.97
2017-11-18T10:46:41.767Z,7.23
2017-11-18T10:49:09.258Z,11.10
2017-11-18T10:51:36.782Z,11.07
2017-11-18T10:54:04.266Z,10.83
2017-11-18T10:56:31.794Z,15.40
2017-11-18T10:58:59.274Z,13.40
2017-11-18T11:01:26.814Z,12.70
2017-11-18T11:03:54.291Z,13.90
2017-11-18T11:06:21.777Z,6.87
2017-11-18T11:08:49.261Z,11.47
2017-11-18T11:11:16.765Z,10.20
2017-11-18T11:13:44.229Z,9.03
2017-11-18T11:16:11.697Z,6.97
2017-11-18T11:18:39.190Z,9.63
2017-11-18T11:21:06.888Z,14.33
2017-11-18T11:23:34.346Z,7.00
2017-11-18T11:26:01.840Z,6.63
2017-11-18T11:28:29.358Z,9.13
2017-11-18T11:30:56.850Z,4.17
2017-11-18T11:33:24.314Z,4.37
2017-11-18T11:35:51.855Z,3.40
2017-11-18T11:38:19.328Z,3.90
2017-11-18T11:40:46.832Z,9.00
2017-11-18T11:43:14.288Z,3.67
2017-11-18T11:45:41.744Z,4.70
2017-11-18T11:48:09.209Z,5.13
2017-11-18T11:50:36.666Z,9.50
2017-11-18T11:53:04.209Z,7.83
2017-11-18T11:55:31.657Z,6.47
2017-11-18T11:57:59.140Z,6.27
2017-11-18T12:00:26.618Z,5.30
2017-11-18T12:02:54.102Z,8.50
2017-11-18T12:05:21.560Z,2.87
2017-11-18T12:07:49.016Z,3.67
2017-11-18T12:10:16.491Z,3.43
2017-11-18T12:12:43.986Z,7.97
2017-11-18T12:15:11.477Z,1.70
2017-11-18T12:17:38.925Z,1.97
2017-11-18T12:20:06.451Z,13.13
2017-11-18T12:22:33.904Z,5.47
2017-11-18T12:25:01.373Z,3.37
2017-11-18T12:27:28.826Z,7.80
2017-11-18T12:29:56.292Z,4.33
2017-11-18T12:32:23.742Z,3.90
2017-11-18T12:34:51.293Z,5.07
2017-11-18T12:37:18.742Z,4.40
2017-11-18T12:39:46.236Z,2.70
2017-11-18T12:42:13.690Z,5.07
2017-11-18T12:44:41.150Z,2.97
2017-11-18T12:47:08.679Z,6.17
2017-11-18T12:49:36.144Z,2.87
2017-11-18T12:52:03.699Z,4.17
2017-11-18T12:54:31.159Z,9.27
2017-11-18T12:56:58.707Z,3.13
2017-11-18T12:59:26.155Z,3.97
2017-11-18T13:01:53.625Z,4.00
2017-11-18T13:04:21.079Z,9.03
2017-11-18T13:06:48.553Z,5.73
2017-11-18T13:09:16.031Z,2.30
2017-11-18T13:11:43.537Z,2.10
2017-11-18T13:14:11.103Z,3.17
2017-11-18T13:16:38.581Z,4.17
2017-11-18T13:19:06.062Z,6.83
2017-11-18T13:21:33.596Z,9.23
2017-11-18T13:24:01.123Z,5.60
2017-11-18T13:26:28.668Z,3.10
2017-11-18T13:28:56.124Z,9.20
2017-11-18T13:31:23.611Z,2.10
2017-11-18T13:33:51.117Z,2.83
2017-11-18T13:36:18.638Z,2.90
2017-11-18T13:38:46.129Z,10.70
2017-11-18T13:41:13.583Z,5.53
2017-11-18T13:43:41.054Z,11.30
2017-11-18T13:46:08.546Z,9.33
2017-11-18T13:48:36.013Z,4.90
2017-11-18T13:51:03.469Z,2.63
2017-11-18T13:53:30.946Z,5.20
2017-11-18T13:55:58.395Z,5.00
2017-11-18T13:58:25.942Z,5.33
2017-11-18T14:00:53.396Z,10.07
2017-11-18T14:03:21.740Z,3.00
2017-11-18T14:05:49.199Z,3.87
2017-11-18T14:08:16.675Z,8.63
2017-11-18T14:10:44.150Z,2.13
2017-11-18T14:13:11.628Z,6.60
2017-11-18T14:15:39.101Z,11.43
2017-11-18T14:18:06.561Z,6.13
2017-11-18T14:20:34.072Z,11.43
2017-11-18T14:23:01.530Z,3.47
2017-11-18T14:25:29.091Z,4.33
2017-11-18T14:27:56.540Z,6.23
2017-11-18T14:30:24.089Z,20.13
2017-11-18T14:32:51.537Z,8.67
2017-11-18T14:35:19.010Z,9.60
2017-11-18T14:37:46.470Z,2.40
2017-11-18T14:40:14.042Z,3.27
2017-11-18T14:42:41.502Z,3.30
2017-11-18T14:45:08.992Z,7.10
2017-11-18T14:47:36.450Z,4.10
2017-11-18T14:50:03.990Z,5.50
2017-11-18T14:52:31.517Z,5.03
2017-11-18T14:54:58.972Z,3.47
2017-11-18T14:57:26.508Z,3.97
2017-11-18T14:59:53.962Z,10.63
2017-11-18T15:02:21.440Z,5.73
2017-11-18T15:04:48.890Z,4.90
2017-11-18T15:07:16.374Z,13.30
2017-11-18T15:09:43.830Z,12.03
2017-11-18T15:12:11.317Z,7.00
2017-11-18T15:18:05.511Z,3.17
2017-11-18T15:20:38.517Z,2.90
2017-11-18T15:26:19.118Z,8.63
2017-11-18T15:28:52.178Z,8.27
2017-11-18T15:31:25.221Z,8.43
2017-11-18T15:37:10.247Z,4.13
2017-11-18T15:39:37.715Z,11.83
2017-11-18T15:42:05.234Z,8.13
2017-11-18T15:44:51.846Z,10.73
2017-11-18T15:47:25.019Z,5.17
2017-11-18T15:49:58.249Z,7.07
2017-11-18T15:55:31.922Z,4.90
2017-11-18T15:57:59.403Z,4.47
2017-11-18T16:00:31.431Z,4.60
2017-11-18T16:02:59.847Z,2.83
2017-11-18T16:05:27.675Z,4.03
2017-11-18T16:07:55.150Z,6.17
2017-11-18T16:10:22.725Z,10.50
2017-11-18T16:12:50.188Z,4.30
2017-11-18T16:15:17.674Z,4.33
2017-11-18T16:17:45.140Z,4.97
2017-11-18T16:20:12.612Z,1.80
2017-11-18T16:22:40.079Z,7.83
2017-11-18T16:25:07.558Z,7.10
2017-11-18T16:27:35.052Z,2.87
2017-11-18T16:30:02.522Z,1.87
2017-11-18T16:32:30.015Z,10.33
2017-11-18T16:34:57.504Z,2.60
2017-11-18T16:37:24.967Z,4.30
2017-11-18T16:39:52.470Z,3.30
2017-11-18T16:42:19.929Z,2.03
2017-11-18T16:44:47.429Z,3.37
2017-11-18T16:47:14.894Z,2.70
2017-11-18T16:49:42.377Z,4.67
2017-11-18T16:52:09.849Z,4.03
2017-11-18T16:54:37.300Z,7.37
2017-11-18T16:57:04.769Z,4.43
2017-11-18T16:59:32.222Z,1.77
2017-11-18T17:01:59.809Z,6.43
2017-11-18T17:04:27.357Z,7.13
2017-11-18T17:06:54.913Z,7.20
2017-11-18T17:09:22.365Z,3.27
2017-11-18T17:11:49.855Z,2.27
2017-11-18T17:14:17.310Z,5.37
2017-11-18T17:16:44.795Z,5.73
2017-11-18T17:19:12.306Z,4.50
2017-11-18T17:21:39.828Z,6.10
2017-11-18T17:24:07.287Z,9.77
2017-11-18T17:26:34.752Z,3.03
2017-11-18T17:29:02.196Z,2.73
2017-11-18T17:31:29.933Z,5.23
2017-11-18T17:33:57.409Z,5.10
2017-11-18T17:36:24.867Z,4.23
2017-11-18T17:38:52.366Z,5.30
2017-11-18T17:41:19.817Z,4.80
2017-11-18T17:43:47.440Z,2.20
2017-11-18T17:46:14.888Z,2.63
2017-11-18T17:48:42.349Z,4.10
2017-11-18T17:51:09.800Z,4.10
2017-11-18T17:53:37.276Z,4.83
2017-11-18T17:56:04.774Z,6.83
2017-11-18T17:58:32.250Z,4.67
2017-11-18T18:00:59.710Z,3.90
2017-11-18T18:03:27.219Z,3.73
2017-11-18T18:05:54.655Z,2.23
2017-11-18T18:08:22.122Z,3.60
2017-11-18T18:10:49.589Z,4.10
2017-11-18T18:13:17.062Z,3.60
2017-11-18T18:15:44.538Z,3.53
2017-11-18T18:18:12.064Z,4.93
2017-11-18T18:20:39.717Z,4.37
2017-11-18T18:23:07.256Z,4.90
2017-11-18T18:25:34.717Z,5.33
2017-11-18T18:28:02.169Z,4.80
2017-11-18T18:30:29.657Z,6.83
2017-11-18T18:32:57.114Z,5.03
2017-11-18T18:35:24.608Z,3.60
2017-11-18T18:37:52.066Z,3.00
2017-11-18T18:40:19.611Z,5.30
2017-11-18T18:42:47.192Z,4.20
2017-11-18T18:45:14.678Z,3.13
2017-11-18T18:47:42.144Z,7.77
2017-11-18T18:50:09.745Z,6.10
2017-11-18T18:52:37.218Z,6.57
2017-11-18T18:55:04.746Z,3.63
2017-11-18T18:57:32.301Z,2.87
2017-11-18T18:59:59.760Z,4.30
2017-11-18T19:02:27.326Z,5.33
2017-11-18T19:04:54.782Z,6.00
2017-11-18T19:07:22.328Z,10.47
2017-11-18T19:09:49.926Z,10.73
2017-11-18T19:12:17.434Z,4.27
2017-11-18T19:14:44.890Z,7.20
2017-11-18T19:17:12.332Z,5.00
2017-11-18T19:19:39.818Z,6.30
2017-11-18T19:22:07.376Z,3.50
2017-11-18T19:24:34.856Z,5.17
2017-11-18T19:27:02.393Z,4.30
2017-11-18T19:29:29.961Z,5.60
2017-11-18T19:31:57.421Z,10.10
2017-11-18T19:34:24.892Z,4.33
2017-11-18T19:36:52.384Z,4.97
2017-11-18T19:39:19.978Z,8.17
2017-11-18T19:41:47.426Z,4.73
2017-11-18T19:44:14.909Z,9.33
2017-11-18T19:46:42.449Z,6.77
2017-11-18T19:49:09.904Z,5.83
2017-11-18T19:51:37.379Z,10.00
2017-11-18T19:54:04.922Z,6.23
2017-11-18T19:56:32.424Z,14.20
2017-11-18T19:58:59.882Z,4.77
2017-11-18T20:01:27.397Z,9.83
2017-11-18T20:03:54.855Z,6.80
2017-11-18T20:06:22.330Z,15.43
2017-11-18T20:08:49.883Z,6.47
2017-11-18T20:11:17.363Z,5.70
2017-11-18T20:13:44.813Z,5.93
2017-11-18T20:16:12.337Z,6.83
2017-11-18T20:18:39.907Z,5.00
2017-11-18T20:21:07.370Z,12.33
2017-11-18T20:23:34.863Z,11.70
2017-11-18T20:26:02.359Z,8.93
2017-11-18T20:28:29.841Z,7.17
2017-11-18T20:30:57.303Z,4.77
2017-11-18T20:33:24.794Z,7.23
2017-11-18T20:35:52.253Z,6.37
2017-11-18T20:38:19.733Z,12.60
2017-11-18T20:40:47.311Z,11.30
2017-11-18T20:43:14.787Z,11.00
2017-11-18T20:45:42.329Z,12.23
2017-11-18T20:48:09.843Z,7.63
2017-11-18T20:50:37.349Z,8.10
2017-11-18T20:53:04.806Z,10.80
2017-11-18T20:55:32.297Z,8.40
2017-11-18T20:57:59.831Z,11.23
2017-11-18T21:00:27.310Z,22.07
2017-11-18T21:02:54.862Z,7.63
2017-11-18T21:05:22.366Z,10.80
2017-11-18T21:07:49.830Z,6.53
2017-11-18T21:10:17.309Z,8.90
2017-11-18T21:12:44.874Z,8.73
2017-11-18T21:15:12.374Z,8.73
2017-11-18T21:17:39.887Z,7.93
2017-11-18T21:20:07.367Z,19.10
2017-11-18T21:22:34.910Z,11.50
2017-11-18T21:25:02.509Z,7.57
2017-11-18T21:27:29.965Z,11.30
2017-11-18T21:29:57.422Z,7.70
2017-11-18T21:32:24.962Z,13.90
2017-11-18T21:34:52.409Z,7.00
2017-11-18T21:37:19.920Z,8.73
2017-11-18T21:39:47.378Z,10.13
2017-11-18T21:42:14.844Z,10.90
2017-11-18T21:44:42.299Z,11.03
2017-11-18T21:47:09.782Z,10.13
2017-11-18T21:49:37.224Z,8.20
2017-11-18T21:52:04.702Z,9.50
2017-11-18T21:54:32.170Z,9.30
2017-11-18T21:56:59.644Z,13.40
2017-11-18T21:59:27.120Z,7.80
2017-11-18T22:01:54.584Z,9.50
2017-11-18T22:04:22.048Z,7.77
2017-11-18T22:06:49.529Z,9.17
2017-11-18T22:09:17.097Z,7.20
2017-11-18T22:11:44.591Z,7.37
2017-11-18T22:14:12.043Z,12.60
2017-11-18T22:16:39.505Z,8.80
2017-11-18T22:19:07.006Z,12.57
2017-11-18T22:21:34.467Z,8.10
2017-11-18T22:24:01.937Z,7.17
2017-11-18T22:26:29.449Z,15.83
2017-11-18T22:28:56.926Z,6.87
2017-11-18T22:31:24.405Z,11.20
2017-11-18T22:33:51.868Z,8.03
2017-11-18T22:36:19.347Z,7.83
2017-11-18T22:38:46.842Z,7.60
2017-11-18T22:41:14.294Z,9.37
2017-11-18T22:43:41.751Z,8.23
2017-11-18T22:46:09.219Z,9.03
2017-11-18T22:48:36.685Z,8.60
2017-11-18T22:51:04.157Z,9.57
2017-11-18T22:53:31.621Z,11.57
2017-11-18T22:55:59.215Z,10.67
2017-11-18T22:58:26.676Z,10.20
2017-11-18T23:00:54.190Z,11.87
2017-11-18T23:03:21.650Z,10.07
2017-11-18T23:05:49.119Z,9.63
2017-11-18T23:08:16.581Z,9.40
2017-11-18T23:10:44.083Z,9.87
2017-11-18T23:13:11.566Z,9.33
2017-11-18T23:15:39.120Z,10.53
2017-11-18T23:18:06.706Z,8.90
2017-11-18T23:20:34.161Z,9.13
2017-11-18T23:23:01.673Z,8.73
2017-11-18T23:25:29.174Z,10.63
2017-11-18T23:27:56.641Z,8.93
2017-11-18T23:30:24.184Z,8.70
2017-11-18T23:32:51.685Z,8.60
2017-11-18T23:35:19.141Z,7.90
2017-11-18T23:37:46.637Z,9.03
2017-11-18T23:40:14.085Z,8.30
2017-11-18T23:42:41.532Z,7.63
2017-11-18T23:45:09.030Z,6.97
2017-11-18T23:47:36.498Z,7.43
2017-11-18T23:50:03.979Z,8.00
2017-11-18T23:52:31.446Z,7.17
2017-11-18T23:54:58.949Z,8.50
2017-11-18T23:57:26.397Z,6.70
2017-11-18T23:59:53.859Z,8.57
